createdAt,value
2019-03-10T00:02:11.305Z,44.40
2019-03-10T00:04:44.289Z,44.40
2019-03-10T00:07:14.457Z,44.40
2019-03-10T00:09:45.261Z,44.40
2019-03-10T00:12:15.430Z,44.40
2019-03-10T00:14:45.598Z,44.40
2019-03-10T00:17:15.775Z,44.40
2019-03-10T00:19:46.184Z,44.40
2019-03-10T00:22:16.354Z,44.40
2019-03-10T00:24:46.532Z,44.40
2019-03-10T00:27:18.332Z,44.50
2019-03-10T00:29:48.581Z,44.50
2019-03-10T00:32:18.949Z,44.50
2019-03-10T00:34:49.924Z,44.60
2019-03-10T00:37:24.028Z,44.40
2019-03-10T00:40:24.468Z,44.40
2019-03-10T00:43:49.621Z,44.40
2019-03-10T00:46:59.788Z,44.40
2019-03-10T00:49:51.429Z,44.60
2019-03-10T00:52:26.487Z,44.50
2019-03-10T00:54:56.750Z,44.50
2019-03-10T00:57:26.953Z,44.50
2019-03-10T00:59:57.391Z,44.50
2019-03-10T01:02:27.892Z,44.60
2019-03-10T01:04:58.268Z,44.50
2019-03-10T01:07:28.724Z,44.50
2019-03-10T01:09:59.400Z,44.40
2019-03-10T01:12:29.793Z,44.50
2019-03-10T01:15:00.346Z,44.50
2019-03-10T01:17:30.690Z,44.50
2019-03-10T01:20:01.165Z,44.50
2019-03-10T01:22:31.874Z,44.50
2019-03-10T01:25:02.038Z,44.50
2019-03-10T01:27:32.504Z,44.50
2019-03-10T01:30:02.973Z,44.50
2019-03-10T01:33:09.859Z,44.50
2019-03-10T01:35:40.100Z,44.40
2019-03-10T01:38:10.282Z,44.40
2019-03-10T01:40:40.628Z,44.50
2019-03-10T01:43:10.796Z,44.50
2019-03-10T01:45:41.001Z,44.50
2019-03-10T01:48:11.207Z,44.50
2019-03-10T01:50:41.421Z,44.40
2019-03-10T01:53:11.720Z,44.50
2019-03-10T01:55:41.873Z,44.50
2019-03-10T01:58:12.103Z,44.50
2019-03-10T02:00:42.269Z,44.50
2019-03-10T02:03:12.571Z,44.50
2019-03-10T02:05:42.742Z,44.40
2019-03-10T02:08:12.921Z,44.40
2019-03-10T02:10:43.081Z,44.30
2019-03-10T02:13:13.411Z,44.40
2019-03-10T02:15:43.588Z,44.30
2019-03-10T02:18:13.834Z,44.60
2019-03-10T02:20:43.993Z,44.30
2019-03-10T02:23:14.223Z,44.30
2019-03-10T02:25:44.591Z,44.40
2019-03-10T02:28:14.788Z,44.30
2019-03-10T02:30:44.956Z,44.30
2019-03-10T02:33:15.501Z,44.30
2019-03-10T02:35:45.831Z,44.30
2019-03-10T02:38:16.035Z,44.30
2019-03-10T02:40:46.200Z,44.20
2019-03-10T02:43:16.408Z,44.20
2019-03-10T02:45:46.577Z,44.20
2019-03-10T02:48:16.786Z,44.20
2019-03-10T02:50:46.943Z,44.20
2019-03-10T02:53:17.173Z,44.20
2019-03-10T02:55:47.342Z,44.30
2019-03-10T02:58:17.584Z,44.30
2019-03-10T03:00:48.844Z,44.20
2019-03-10T03:03:19.993Z,44.10
2019-03-10T03:05:50.202Z,44.10
2019-03-10T03:08:20.470Z,44.20
2019-03-10T03:10:50.661Z,44.20
2019-03-10T03:13:20.837Z,44.10
2019-03-10T03:15:51.038Z,44.20
2019-03-10T03:18:22.326Z,44.20
2019-03-10T03:20:52.496Z,44.20
2019-03-10T03:23:23.675Z,43.90
2019-03-10T03:25:53.861Z,44.20
2019-03-10T03:28:24.070Z,44.20
2019-03-10T03:30:54.243Z,44.80
2019-03-10T03:33:24.800Z,44.20
2019-03-10T03:35:59.071Z,44.20
2019-03-10T03:38:42.744Z,44.30
2019-03-10T03:41:24.783Z,44.20
2019-03-10T03:43:54.965Z,44.20
2019-03-10T03:46:25.155Z,44.20
2019-03-10T03:48:55.396Z,44.20
2019-03-10T03:51:25.547Z,44.20
2019-03-10T03:53:55.752Z,44.20
2019-03-10T03:56:25.954Z,44.20
2019-03-10T03:58:56.181Z,44.20
2019-03-10T04:01:30.722Z,44.30
2019-03-10T04:04:01.977Z,44.30
2019-03-10T04:06:32.194Z,44.20
2019-03-10T04:09:02.398Z,44.20
2019-03-10T04:11:33.074Z,44.20
2019-03-10T04:14:03.615Z,44.30
2019-03-10T04:16:33.827Z,44.30
2019-03-10T04:19:04.057Z,44.30
2019-03-10T04:21:34.265Z,44.30
2019-03-10T04:24:05.638Z,44.30
2019-03-10T04:26:35.838Z,44.30
2019-03-10T04:29:06.084Z,44.30
2019-03-10T04:31:36.306Z,44.20
2019-03-10T04:34:06.706Z,43.80
2019-03-10T04:36:36.900Z,44.30
2019-03-10T04:39:07.167Z,44.30
2019-03-10T04:41:37.369Z,44.30
2019-03-10T04:44:07.623Z,44.30
2019-03-10T04:46:37.785Z,44.30
2019-03-10T04:49:09.063Z,44.30
2019-03-10T04:51:39.241Z,44.30
2019-03-10T04:54:09.472Z,44.30
2019-03-10T04:56:41.300Z,44.30
2019-03-10T04:59:11.505Z,44.30
2019-03-10T05:01:41.688Z,44.30
2019-03-10T05:04:11.860Z,44.30
2019-03-10T05:06:42.069Z,44.30
2019-03-10T05:09:12.285Z,44.30
2019-03-10T05:11:42.451Z,44.40
2019-03-10T05:14:12.702Z,44.40
2019-03-10T05:16:42.878Z,44.30
2019-03-10T05:19:13.096Z,44.30
2019-03-10T05:21:43.268Z,44.40
2019-03-10T05:24:14.702Z,44.30
2019-03-10T05:26:44.880Z,44.30
2019-03-10T05:29:15.081Z,44.40
2019-03-10T05:31:45.288Z,44.40
2019-03-10T05:34:15.534Z,44.40
2019-03-10T05:36:45.714Z,44.50
2019-03-10T05:39:15.897Z,44.50
2019-03-10T05:41:46.151Z,44.40
2019-03-10T05:44:16.353Z,44.50
2019-03-10T05:46:46.529Z,44.40
2019-03-10T05:49:16.668Z,44.50
2019-03-10T05:51:46.892Z,44.40
2019-03-10T05:54:17.069Z,44.50
2019-03-10T05:56:47.287Z,44.50
2019-03-10T05:59:17.476Z,44.50
2019-03-10T06:01:47.674Z,44.50
2019-03-10T06:04:17.822Z,44.50
2019-03-10T06:06:48.038Z,44.60
2019-03-10T06:09:18.202Z,44.50
2019-03-10T06:11:48.390Z,44.50
2019-03-10T06:14:18.676Z,44.60
2019-03-10T06:16:48.904Z,44.50
2019-03-10T06:19:19.106Z,44.60
2019-03-10T06:21:49.302Z,44.60
2019-03-10T06:24:19.644Z,44.60
2019-03-10T06:26:49.832Z,44.70
2019-03-10T06:29:20.048Z,44.70
2019-03-10T06:31:51.346Z,44.70
2019-03-10T06:34:21.721Z,44.80
2019-03-10T06:36:51.992Z,44.80
2019-03-10T06:39:22.151Z,44.80
2019-03-10T06:41:52.320Z,44.80
2019-03-10T06:44:22.492Z,44.80
2019-03-10T06:46:52.701Z,44.80
2019-03-10T06:49:23.271Z,44.80
2019-03-10T06:51:53.514Z,44.70
2019-03-10T06:54:23.659Z,44.80
2019-03-10T06:56:53.997Z,44.70
2019-03-10T06:59:24.202Z,44.70
2019-03-10T07:01:54.435Z,44.70
2019-03-10T07:04:24.661Z,44.80
2019-03-10T07:06:54.853Z,44.80
2019-03-10T07:09:25.025Z,44.80
2019-03-10T07:11:55.204Z,44.80
2019-03-10T07:14:25.394Z,44.90
2019-03-10T07:16:55.574Z,44.90
2019-03-10T07:19:25.737Z,44.90
2019-03-10T07:21:56.042Z,44.90
2019-03-10T07:24:27.355Z,44.90
2019-03-10T07:26:57.551Z,45.00
2019-03-10T07:29:29.364Z,45.20
2019-03-10T07:32:17.453Z,46.90
2019-03-10T07:34:49.260Z,48.20
2019-03-10T07:37:21.122Z,47.70
2019-03-10T07:39:58.870Z,47.70
2019-03-10T07:42:36.264Z,47.30
2019-03-10T07:45:19.483Z,47.50
2019-03-10T07:48:09.476Z,46.70
2019-03-10T07:50:44.386Z,46.50
2019-03-10T07:53:18.858Z,46.30
2019-03-10T07:55:59.974Z,46.30
2019-03-10T07:58:37.484Z,46.20
2019-03-10T08:01:25.550Z,46.10
2019-03-10T08:03:57.359Z,46.00
2019-03-10T08:06:35.355Z,45.90
2019-03-10T08:09:12.515Z,45.90
2019-03-10T08:12:15.972Z,46.20
2019-03-10T08:14:59.710Z,46.20
2019-03-10T08:17:47.896Z,46.10
2019-03-10T08:20:22.685Z,46.10
2019-03-10T08:22:54.540Z,46.10
2019-03-10T08:25:35.214Z,46.10
2019-03-10T08:28:07.134Z,46.10
2019-03-10T08:30:50.831Z,46.10
2019-03-10T08:33:22.712Z,46.10
2019-03-10T08:35:54.972Z,46.00
2019-03-10T08:38:26.889Z,46.00
2019-03-10T08:41:17.600Z,45.90
2019-03-10T08:43:49.465Z,47.30
2019-03-10T08:46:39.110Z,48.70
2019-03-10T08:49:19.813Z,49.10
2019-03-10T08:51:51.672Z,48.50
2019-03-10T08:54:23.481Z,48.00
2019-03-10T08:57:04.791Z,47.70
2019-03-10T08:59:36.639Z,47.40
2019-03-10T09:02:23.160Z,47.20
2019-03-10T09:05:11.148Z,47.20
2019-03-10T09:07:45.393Z,47.10
2019-03-10T09:10:18.387Z,47.00
2019-03-10T09:12:56.141Z,46.90
2019-03-10T09:15:44.164Z,46.80
2019-03-10T09:18:32.124Z,46.70
2019-03-10T09:21:20.100Z,46.60
2019-03-10T09:24:00.724Z,46.60
2019-03-10T09:26:41.680Z,46.70
2019-03-10T09:29:13.526Z,47.00
2019-03-10T09:31:57.441Z,47.10
2019-03-10T09:34:29.321Z,47.10
2019-03-10T09:37:10.132Z,47.20
2019-03-10T09:39:48.006Z,47.20
2019-03-10T09:42:37.512Z,47.10
2019-03-10T09:45:26.630Z,47.20
2019-03-10T09:48:04.332Z,47.20
2019-03-10T09:50:42.398Z,47.50
2019-03-10T09:53:20.090Z,47.70
2019-03-10T09:55:52.026Z,47.60
2019-03-10T09:58:26.741Z,47.70
2019-03-10T10:01:01.506Z,47.90
2019-03-10T10:03:39.433Z,48.40
2019-03-10T10:06:26.453Z,48.60
2019-03-10T10:09:07.301Z,48.60
2019-03-10T10:11:54.277Z,48.50
2019-03-10T10:14:43.277Z,48.30
2019-03-10T10:17:17.746Z,48.40
2019-03-10T10:19:52.436Z,48.40
2019-03-10T10:22:30.335Z,48.40
2019-03-10T10:25:02.197Z,48.40
2019-03-10T10:27:34.163Z,48.30
2019-03-10T10:30:20.613Z,48.30
2019-03-10T10:32:53.600Z,48.30
2019-03-10T10:35:35.019Z,48.30
2019-03-10T10:38:18.945Z,48.20
2019-03-10T10:41:01.411Z,48.10
2019-03-10T10:43:49.718Z,48.20
2019-03-10T10:46:21.543Z,48.00
2019-03-10T10:49:00.938Z,48.10
2019-03-10T10:51:45.071Z,48.10
2019-03-10T10:54:18.960Z,48.00
2019-03-10T10:56:56.792Z,48.00
2019-03-10T10:59:44.947Z,47.90
2019-03-10T11:02:20.860Z,47.80
2019-03-10T11:04:58.682Z,47.80
2019-03-10T11:07:33.096Z,47.70
2019-03-10T11:10:09.097Z,47.80
2019-03-10T11:12:49.975Z,47.80
2019-03-10T11:15:24.476Z,47.70
2019-03-10T11:18:08.918Z,48.40
2019-03-10T11:20:39.138Z,48.30
2019-03-10T11:23:24.818Z,48.20
2019-03-10T11:26:08.932Z,48.00
2019-03-10T11:28:48.744Z,47.80
2019-03-10T11:31:20.516Z,47.70
2019-03-10T11:33:52.304Z,47.60
2019-03-10T11:36:47.939Z,47.50
2019-03-10T11:39:20.689Z,47.40
2019-03-10T11:41:52.461Z,47.30
2019-03-10T11:44:46.225Z,47.30
2019-03-10T11:47:23.685Z,47.20
2019-03-10T11:49:55.592Z,47.20
2019-03-10T11:52:27.378Z,47.20
2019-03-10T11:54:59.213Z,45.50
2019-03-10T11:57:33.648Z,46.50
2019-03-10T12:00:31.797Z,46.60
2019-03-10T12:03:06.787Z,46.50
2019-03-10T12:06:00.598Z,46.50
2019-03-10T12:08:35.113Z,46.60
2019-03-10T12:11:05.669Z,46.70
2019-03-10T12:13:35.783Z,46.60
2019-03-10T12:16:06.008Z,46.60
2019-03-10T12:18:36.183Z,46.60
2019-03-10T12:21:09.595Z,46.60
2019-03-10T12:23:39.720Z,46.50
2019-03-10T12:26:11.801Z,46.50
2019-03-10T12:28:42.008Z,46.40
2019-03-10T12:31:12.215Z,46.60
2019-03-10T12:33:42.370Z,46.50
2019-03-10T12:36:12.501Z,46.40
2019-03-10T12:38:42.658Z,46.20
2019-03-10T12:41:14.378Z,46.20
2019-03-10T12:43:44.487Z,46.00
2019-03-10T12:46:14.615Z,46.00
2019-03-10T12:48:44.734Z,45.90
2019-03-10T12:51:14.855Z,45.90
2019-03-10T12:53:45.258Z,45.80
2019-03-10T12:56:17.022Z,45.80
2019-03-10T12:58:47.164Z,45.70
2019-03-10T13:01:17.286Z,45.70
2019-03-10T13:03:58.025Z,45.60
2019-03-10T13:06:19.235Z,45.50
2019-03-10T13:08:49.368Z,45.60
2019-03-10T13:11:19.518Z,45.40
2019-03-10T13:13:51.613Z,45.50
2019-03-10T13:16:22.746Z,45.50
2019-03-10T13:18:53.787Z,45.50
2019-03-10T13:21:25.921Z,45.40
2019-03-10T13:23:55.705Z,45.50
2019-03-10T13:26:25.844Z,45.40
2019-03-10T13:28:55.954Z,45.10
2019-03-10T13:31:26.140Z,45.30
2019-03-10T13:33:56.261Z,45.30
2019-03-10T13:36:26.397Z,45.40
2019-03-10T13:38:57.497Z,45.40
2019-03-10T13:41:27.673Z,45.50
2019-03-10T13:43:57.891Z,46.00
2019-03-10T13:46:27.982Z,45.50
2019-03-10T13:48:58.116Z,45.60
2019-03-10T13:51:28.240Z,45.50
2019-03-10T13:53:58.369Z,45.50
2019-03-10T13:56:28.506Z,45.40
2019-03-10T13:58:58.626Z,45.40
2019-03-10T14:01:28.748Z,45.20
2019-03-10T14:04:00.233Z,45.20
2019-03-10T14:06:30.481Z,45.20
2019-03-10T14:09:00.602Z,45.20
2019-03-10T14:11:32.381Z,45.30
2019-03-10T14:14:02.523Z,45.30
2019-03-10T14:16:32.707Z,45.40
2019-03-10T14:19:02.850Z,45.20
2019-03-10T14:21:32.904Z,45.30
2019-03-10T14:24:03.060Z,45.30
2019-03-10T14:26:34.093Z,45.30
2019-03-10T14:29:23.749Z,45.30
2019-03-10T14:31:54.069Z,45.30
2019-03-10T14:34:24.195Z,45.30
2019-03-10T14:36:54.335Z,45.30
2019-03-10T14:39:25.563Z,45.20
2019-03-10T14:41:56.066Z,45.30
2019-03-10T14:44:26.234Z,45.10
2019-03-10T14:46:57.453Z,45.00
2019-03-10T14:49:31.379Z,45.10
2019-03-10T14:52:01.989Z,45.10
2019-03-10T14:54:32.169Z,45.00
